createdAt,value
2018-08-23T00:01:18.677Z,45.93
2018-08-23T00:03:47.539Z,45.12
2018-08-23T00:06:16.255Z,44.24
2018-08-23T00:08:48.773Z,44.49
2018-08-23T00:11:21.987Z,45.65
2018-08-23T00:13:50.787Z,44.43
2018-08-23T00:16:35.462Z,44.25
2018-08-23T00:19:04.931Z,44.86
2018-08-23T00:21:38.097Z,45.49
2018-08-23T00:24:19.710Z,44.76
2018-08-23T00:26:51.443Z,45.39
2018-08-23T00:29:26.526Z,44.75
2018-08-23T00:31:57.228Z,44.71
2018-08-23T00:34:28.684Z,43.59
2018-08-23T00:36:57.786Z,44.82
2018-08-23T00:39:27.197Z,44.95
2018-08-23T00:42:01.090Z,44.29
2018-08-23T00:44:34.215Z,44.73
2018-08-23T00:47:02.877Z,43.03
2018-08-23T00:49:33.200Z,43.95
2018-08-23T00:52:01.998Z,44.47
2018-08-23T00:54:30.742Z,44.48
2018-08-23T00:56:59.473Z,44.43
2018-08-23T00:59:28.151Z,44.49
2018-08-23T01:02:13.549Z,43.43
2018-08-23T01:04:45.707Z,43.74
2018-08-23T01:07:19.137Z,43.99
2018-08-23T01:09:47.832Z,43.75
2018-08-23T01:12:16.688Z,43.88
2018-08-23T01:14:45.430Z,43.37
2018-08-23T01:17:16.898Z,43.87
2018-08-23T01:19:50.925Z,43.92
2018-08-23T01:22:19.737Z,43.70
2018-08-23T01:24:50.459Z,43.63
2018-08-23T01:27:24.202Z,43.59
2018-08-23T01:29:53.342Z,44.14
2018-08-23T01:32:27.162Z,44.40
2018-08-23T01:34:55.907Z,45.07
2018-08-23T01:37:36.112Z,45.05
2018-08-23T01:40:06.946Z,44.88
2018-08-23T01:42:36.694Z,44.99
2018-08-23T01:45:06.625Z,45.12
2018-08-23T01:47:42.368Z,44.78
2018-08-23T01:50:11.809Z,44.72
2018-08-23T01:52:48.603Z,45.27
2018-08-23T01:55:18.103Z,44.95
2018-08-23T01:57:47.153Z,45.60
2018-08-23T02:00:19.793Z,45.83
2018-08-23T02:02:48.643Z,45.78
2018-08-23T02:05:17.455Z,46.40
2018-08-23T02:07:46.185Z,46.24
2018-08-23T02:10:15.042Z,45.83
2018-08-23T02:12:48.782Z,46.11
2018-08-23T02:15:17.521Z,46.47
2018-08-23T02:17:51.381Z,46.13
2018-08-23T02:20:20.109Z,46.21
2018-08-23T02:22:48.868Z,46.72
2018-08-23T02:25:17.631Z,46.43
2018-08-23T02:28:09.255Z,47.81
2018-08-23T02:30:54.720Z,46.92
2018-08-23T02:33:23.484Z,47.34
2018-08-23T02:36:00.156Z,47.43
2018-08-23T02:38:29.845Z,47.31
2018-08-23T02:40:58.655Z,46.87
2018-08-23T02:43:27.359Z,47.17
2018-08-23T02:45:56.049Z,46.86
2018-08-23T02:48:25.185Z,47.49
2018-08-23T02:50:54.572Z,47.59
2018-08-23T02:53:33.808Z,47.94
2018-08-23T02:56:08.616Z,47.95
2018-08-23T02:58:59.196Z,48.58
2018-08-23T03:01:30.092Z,48.62
2018-08-23T03:04:08.559Z,48.99
2018-08-23T03:07:12.714Z,48.63
2018-08-23T03:09:44.380Z,49.38
2018-08-23T03:12:17.394Z,49.63
2018-08-23T03:14:46.306Z,49.14
2018-08-23T03:17:20.748Z,49.28
2018-08-23T03:20:14.704Z,49.22
2018-08-23T03:22:44.750Z,50.43
2018-08-23T03:25:14.776Z,49.59
2018-08-23T03:27:43.493Z,51.09
2018-08-23T03:30:13.973Z,50.66
2018-08-23T03:32:42.813Z,49.48
2018-08-23T03:35:11.527Z,49.80
2018-08-23T03:37:40.190Z,50.79
2018-08-23T03:40:10.082Z,50.55
2018-08-23T03:42:38.848Z,50.38
2018-08-23T03:45:12.546Z,51.00
2018-08-23T03:47:46.384Z,52.17
2018-08-23T03:50:15.054Z,52.09
2018-08-23T03:52:50.106Z,53.30
2018-08-23T03:55:22.683Z,51.81
2018-08-23T03:57:57.419Z,51.35
2018-08-23T04:00:31.319Z,52.60
2018-08-23T04:03:02.109Z,51.47
2018-08-23T04:05:30.834Z,52.52
2018-08-23T04:07:59.571Z,51.44
2018-08-23T04:10:28.384Z,51.52
2018-08-23T04:12:57.090Z,52.80
2018-08-23T04:15:31.689Z,52.80
2018-08-23T04:18:11.967Z,52.68
2018-08-23T04:20:51.455Z,52.83
2018-08-23T04:23:20.425Z,53.83
2018-08-23T04:25:49.140Z,53.59
2018-08-23T04:28:17.900Z,53.57
2018-08-23T04:30:46.683Z,54.03
2018-08-23T04:33:15.387Z,53.37
2018-08-23T04:35:44.108Z,53.58
2018-08-23T04:38:12.894Z,53.67
2018-08-23T04:40:51.418Z,54.55
2018-08-23T04:43:20.222Z,54.36
2018-08-23T04:45:48.939Z,53.80
2018-08-23T04:48:17.710Z,53.20
2018-08-23T04:50:46.492Z,52.99
2018-08-23T04:53:15.202Z,52.81
2018-08-23T04:55:44.001Z,52.63
2018-08-23T04:58:12.980Z,52.09
2018-08-23T05:00:41.654Z,51.93
2018-08-23T05:03:10.367Z,52.97
2018-08-23T05:05:39.064Z,52.30
2018-08-23T05:08:07.787Z,53.26
2018-08-23T05:10:36.475Z,50.44
2018-08-23T05:13:05.211Z,52.18
2018-08-23T05:15:33.908Z,53.73
2018-08-23T05:18:02.610Z,51.95
2018-08-23T05:20:31.330Z,51.67
2018-08-23T05:23:03.967Z,51.80
2018-08-23T05:25:32.674Z,51.63
2018-08-23T05:28:18.879Z,51.19
2018-08-23T05:30:48.255Z,50.10
2018-08-23T05:33:22.886Z,48.88
2018-08-23T05:35:51.691Z,49.66
2018-08-23T05:38:20.783Z,48.12
2018-08-23T05:40:58.266Z,49.94
2018-08-23T05:43:26.967Z,47.97
2018-08-23T05:45:56.686Z,48.40
2018-08-23T05:48:32.521Z,48.96
2018-08-23T05:51:06.227Z,47.13
2018-08-23T05:53:38.603Z,47.59
2018-08-23T05:56:07.935Z,48.04
2018-08-23T05:58:36.663Z,46.98
2018-08-23T06:01:05.448Z,48.31
2018-08-23T06:03:34.326Z,49.27
2018-08-23T06:06:03.007Z,48.63
2018-08-23T06:08:31.719Z,48.79
2018-08-23T06:11:06.048Z,48.61
2018-08-23T06:13:34.755Z,48.41
2018-08-23T06:16:03.568Z,49.34
2018-08-23T06:18:32.363Z,48.59
2018-08-23T06:21:01.207Z,48.74
2018-08-23T06:24:06.350Z,48.43
2018-08-23T06:26:47.082Z,47.76
2018-08-23T06:29:21.078Z,48.12
2018-08-23T06:31:57.768Z,47.42
2018-08-23T06:34:28.963Z,48.00
2018-08-23T06:36:57.746Z,46.76
2018-08-23T06:39:26.554Z,47.12
2018-08-23T06:41:58.142Z,46.36
2018-08-23T06:44:33.922Z,46.58
2018-08-23T06:47:02.659Z,45.34
2018-08-23T06:49:31.365Z,46.15
2018-08-23T06:52:08.219Z,46.60
2018-08-23T06:54:36.913Z,46.14
2018-08-23T06:57:05.619Z,45.82
2018-08-23T06:59:34.355Z,45.21
2018-08-23T07:02:03.097Z,45.00
2018-08-23T07:04:31.878Z,45.61
2018-08-23T07:07:00.615Z,44.75
2018-08-23T07:09:29.388Z,43.83
2018-08-23T07:12:05.526Z,45.11
2018-08-23T07:14:35.479Z,42.68
2018-08-23T07:17:17.097Z,41.12
2018-08-23T07:19:46.675Z,41.31
2018-08-23T07:22:29.648Z,40.56
2018-08-23T07:24:58.743Z,38.95
2018-08-23T07:27:27.516Z,39.81
2018-08-23T07:29:57.491Z,38.65
2018-08-23T07:32:27.323Z,39.07
2018-08-23T07:35:07.452Z,39.31
2018-08-23T07:37:37.403Z,38.88
2018-08-23T07:40:23.008Z,38.80
2018-08-23T07:42:53.174Z,37.83
2018-08-23T07:45:21.911Z,37.17
2018-08-23T07:47:52.321Z,36.78
2018-08-23T07:50:21.143Z,36.63
2018-08-23T07:52:51.204Z,36.83
2018-08-23T07:55:19.933Z,37.35
2018-08-23T07:57:49.102Z,36.47
2018-08-23T08:00:40.534Z,35.92
2018-08-23T08:03:10.363Z,36.82
2018-08-23T08:05:45.021Z,37.33
2018-08-23T08:08:14.301Z,37.27
2018-08-23T08:10:44.434Z,37.32
2018-08-23T08:13:13.138Z,36.85
2018-08-23T08:15:41.906Z,37.53
2018-08-23T08:18:28.512Z,37.99
2018-08-23T08:21:29.208Z,38.79
2018-08-23T08:23:58.852Z,39.32
2018-08-23T08:26:30.453Z,39.31
2018-08-23T08:28:59.126Z,39.21
2018-08-23T08:31:27.896Z,39.24
2018-08-23T08:33:58.584Z,39.26
2018-08-23T08:36:30.201Z,38.97
2018-08-23T08:38:59.374Z,39.01
2018-08-23T08:41:32.674Z,37.41
2018-08-23T08:44:01.532Z,37.43
2018-08-23T08:46:30.266Z,38.42
2018-08-23T08:48:59.090Z,38.32
2018-08-23T08:51:30.908Z,38.19
2018-08-23T08:54:00.917Z,36.58
2018-08-23T08:56:48.124Z,36.57
2018-08-23T08:59:16.934Z,35.97
2018-08-23T09:01:45.624Z,37.23
2018-08-23T09:04:19.564Z,35.96
2018-08-23T09:06:48.362Z,35.06
2018-08-23T09:09:26.115Z,35.60
2018-08-23T09:11:55.027Z,35.89
2018-08-23T09:14:23.715Z,36.12
2018-08-23T09:16:52.493Z,35.70
2018-08-23T09:19:21.225Z,35.28
2018-08-23T09:22:05.674Z,36.28
2018-08-23T09:24:34.440Z,35.66
2018-08-23T09:27:03.262Z,35.05
2018-08-23T09:29:38.384Z,36.00
2018-08-23T09:32:19.231Z,35.44
2018-08-23T09:34:48.262Z,34.75
2018-08-23T09:37:16.963Z,35.50
2018-08-23T09:39:46.966Z,35.90
2018-08-23T09:42:15.671Z,35.95
2018-08-23T09:45:00.296Z,35.93
2018-08-23T09:47:29.695Z,36.10
2018-08-23T09:49:59.283Z,35.77
2018-08-23T09:52:29.850Z,36.05
2018-08-23T09:54:58.615Z,36.42
2018-08-23T09:57:27.336Z,35.62
2018-08-23T09:59:56.956Z,36.83
2018-08-23T10:02:30.895Z,35.83
2018-08-23T10:05:04.659Z,36.91
2018-08-23T10:07:38.596Z,37.32
2018-08-23T10:10:12.524Z,36.92
2018-08-23T10:12:46.432Z,36.90
2018-08-23T10:15:20.333Z,36.38
2018-08-23T10:17:54.247Z,36.73
2018-08-23T10:20:28.153Z,36.80
2018-08-23T10:23:16.078Z,37.64
2018-08-23T10:25:46.075Z,37.07
2018-08-23T10:28:16.025Z,37.22
2018-08-23T10:30:45.055Z,35.88
2018-08-23T10:33:13.856Z,36.76
2018-08-23T10:35:48.843Z,36.76
2018-08-23T10:38:19.544Z,36.31
2018-08-23T10:40:49.261Z,35.40
2018-08-23T10:43:22.090Z,33.75
2018-08-23T10:45:50.826Z,35.03
2018-08-23T10:48:20.153Z,33.52
2018-08-23T10:50:50.086Z,33.64
2018-08-23T10:53:19.171Z,33.12
2018-08-23T10:55:47.895Z,33.58
2018-08-23T10:58:16.592Z,33.82
2018-08-23T11:00:45.350Z,32.42
2018-08-23T11:03:14.271Z,32.61
2018-08-23T11:05:43.113Z,33.07
2018-08-23T11:08:17.162Z,33.37
2018-08-23T11:10:50.921Z,32.81
2018-08-23T11:13:25.045Z,32.63
2018-08-23T11:15:59.090Z,31.99
2018-08-23T11:18:33.090Z,31.92
2018-08-23T11:21:01.843Z,32.59
2018-08-23T11:23:30.570Z,31.19
2018-08-23T11:25:59.330Z,32.43
2018-08-23T11:28:28.189Z,31.85
2018-08-23T11:31:02.443Z,31.44
2018-08-23T11:33:31.160Z,30.56
2018-08-23T11:35:59.954Z,30.54
2018-08-23T11:38:28.758Z,30.44
2018-08-23T11:40:57.419Z,31.10
2018-08-23T11:43:26.157Z,30.53
2018-08-23T11:46:01.929Z,30.03
2018-08-23T11:48:31.017Z,30.17
2018-08-23T11:50:59.786Z,30.32
2018-08-23T11:53:28.953Z,29.52
2018-08-23T11:55:57.406Z,28.89
2018-08-23T11:58:26.182Z,30.34
2018-08-23T12:00:59.016Z,30.27
2018-08-23T12:03:27.748Z,29.77
2018-08-23T12:05:56.433Z,29.68
2018-08-23T12:08:25.158Z,29.69
2018-08-23T12:10:53.984Z,29.34
2018-08-23T12:13:22.646Z,30.57
2018-08-23T12:15:51.393Z,30.10
2018-08-23T12:18:20.180Z,29.40
2018-08-23T12:20:48.847Z,30.31
2018-08-23T12:23:17.568Z,29.88
2018-08-23T12:25:46.387Z,29.54
2018-08-23T12:28:20.243Z,30.44
2018-08-23T12:30:49.103Z,29.45
2018-08-23T12:33:17.863Z,29.60
2018-08-23T12:35:46.703Z,30.12
2018-08-23T12:38:21.491Z,29.17
2018-08-23T12:40:55.382Z,28.87
2018-08-23T12:43:29.285Z,29.78
2018-08-23T12:46:01.819Z,28.68
2018-08-23T12:48:30.547Z,29.31
2018-08-23T12:50:59.569Z,29.19
2018-08-23T12:53:29.581Z,28.67
2018-08-23T12:55:58.399Z,29.91
2018-08-23T12:58:27.099Z,29.71
2018-08-23T13:00:55.818Z,29.36
2018-08-23T13:03:24.579Z,31.07
2018-08-23T13:05:53.443Z,30.49
2018-08-23T13:08:22.195Z,31.04
2018-08-23T13:10:50.928Z,29.19
2018-08-23T13:13:19.612Z,29.37
2018-08-23T13:15:48.358Z,29.21
2018-08-23T13:18:17.159Z,29.77
2018-08-23T13:20:45.836Z,29.66
2018-08-23T13:23:14.606Z,28.61
2018-08-23T13:25:48.602Z,28.58
2018-08-23T13:28:17.412Z,27.95
2018-08-23T13:30:46.214Z,27.57
2018-08-23T13:33:14.991Z,28.67
2018-08-23T13:35:43.712Z,27.89
2018-08-23T13:38:12.550Z,27.48
2018-08-23T13:40:41.446Z,28.22
2018-08-23T13:43:10.139Z,28.33
2018-08-23T13:45:38.897Z,27.36
2018-08-23T13:48:07.805Z,27.67
2018-08-23T13:50:36.610Z,27.89
2018-08-23T13:53:05.366Z,27.36
2018-08-23T13:55:34.270Z,27.84
2018-08-23T13:58:02.994Z,28.08
2018-08-23T14:00:36.967Z,27.41
2018-08-23T14:03:05.779Z,27.05
2018-08-23T14:05:34.582Z,27.48
2018-08-23T14:08:03.339Z,26.87
2018-08-23T14:10:32.128Z,28.13
2018-08-23T14:13:00.929Z,27.51
2018-08-23T14:15:34.799Z,28.23
2018-08-23T14:18:03.511Z,27.12
2018-08-23T14:20:32.304Z,28.61
2018-08-23T14:23:01.023Z,28.53
2018-08-23T14:25:29.777Z,27.81
2018-08-23T14:27:58.422Z,27.66
2018-08-23T14:30:27.278Z,28.89
2018-08-23T14:32:56.046Z,27.59
2018-08-23T14:35:24.775Z,28.53
2018-08-23T14:37:53.519Z,28.01
2018-08-23T14:40:22.247Z,27.46
2018-08-23T14:42:50.930Z,27.28
2018-08-23T14:45:24.912Z,28.69
2018-08-23T14:47:58.746Z,28.49
2018-08-23T14:50:27.448Z,26.92
2018-08-23T14:52:56.165Z,28.88
2018-08-23T14:55:30.390Z,28.93
2018-08-23T14:57:59.096Z,28.53
2018-08-23T15:00:27.847Z,28.18
2018-08-23T15:02:56.604Z,28.93
2018-08-23T15:05:25.373Z,28.80
2018-08-23T15:07:54.092Z,27.85
2018-08-23T15:10:22.892Z,28.50
2018-08-23T15:12:51.716Z,28.34
2018-08-23T15:15:24.606Z,27.75
2018-08-23T15:18:02.110Z,28.69
2018-08-23T15:20:30.807Z,28.69
2018-08-23T15:22:59.513Z,28.51
2018-08-23T15:25:28.166Z,28.19
2018-08-23T15:27:56.852Z,29.34
2018-08-23T15:30:25.542Z,27.94
2018-08-23T15:32:54.282Z,29.19
2018-08-23T15:35:22.959Z,28.47
2018-08-23T15:37:51.727Z,29.21
2018-08-23T15:40:20.720Z,28.78
2018-08-23T15:42:49.523Z,27.93
2018-08-23T15:45:19.123Z,28.75
2018-08-23T15:47:47.880Z,29.10
2018-08-23T15:50:16.618Z,29.74
2018-08-23T15:52:45.348Z,28.93
2018-08-23T15:55:14.228Z,29.24
2018-08-23T15:57:42.868Z,30.57
2018-08-23T16:00:11.624Z,30.34
2018-08-23T16:02:40.328Z,30.63
2018-08-23T16:05:09.224Z,31.06
2018-08-23T16:07:38.101Z,30.65
2018-08-23T16:10:08.503Z,30.60
2018-08-23T16:12:37.415Z,30.90
2018-08-23T16:15:11.433Z,29.60
2018-08-23T16:17:45.293Z,30.77
2018-08-23T16:20:19.251Z,31.79
2018-08-23T16:22:47.969Z,30.96
2018-08-23T16:25:16.659Z,31.38
2018-08-23T16:27:45.416Z,31.45
2018-08-23T16:30:15.579Z,31.81
2018-08-23T16:32:44.286Z,32.16
2018-08-23T16:35:13.024Z,33.10
2018-08-23T16:37:41.720Z,32.79
2018-08-23T16:40:10.511Z,33.24
2018-08-23T16:42:39.256Z,33.25
2018-08-23T16:45:08.020Z,34.81
2018-08-23T16:47:36.778Z,33.15
2018-08-23T16:50:05.600Z,34.37
2018-08-23T16:52:34.293Z,34.23
2018-08-23T16:55:02.976Z,35.08
2018-08-23T16:57:31.656Z,34.73
2018-08-23T17:00:00.382Z,35.11
2018-08-23T17:02:29.087Z,35.85
2018-08-23T17:04:57.869Z,37.33
2018-08-23T17:07:26.566Z,36.92
2018-08-23T17:09:55.264Z,37.07
2018-08-23T17:12:24.065Z,38.89
2018-08-23T17:14:52.748Z,38.31
2018-08-23T17:17:27.828Z,38.88
2018-08-23T17:19:56.722Z,38.83
2018-08-23T17:22:26.235Z,39.16
2018-08-23T17:24:55.007Z,38.94
2018-08-23T17:27:23.688Z,39.91
2018-08-23T17:29:52.369Z,39.58
2018-08-23T17:32:21.084Z,40.64
2018-08-23T17:34:49.774Z,40.96
2018-08-23T17:37:18.452Z,40.54
2018-08-23T17:39:47.242Z,41.41
2018-08-23T17:42:16.566Z,40.83
2018-08-23T17:44:45.324Z,41.88
2018-08-23T17:47:14.105Z,41.84
2018-08-23T17:49:42.894Z,41.39
2018-08-23T17:52:11.634Z,42.46
2018-08-23T17:54:40.399Z,42.24
2018-08-23T17:57:09.143Z,42.33
2018-08-23T17:59:38.805Z,43.16
2018-08-23T18:02:07.541Z,42.92
2018-08-23T18:04:36.250Z,44.33
2018-08-23T18:07:07.665Z,44.02
2018-08-23T18:09:36.353Z,44.08
2018-08-23T18:12:05.137Z,43.79
2018-08-23T18:14:33.884Z,45.17
2018-08-23T18:17:02.607Z,44.92
2018-08-23T18:24:20.998Z,44.49
2018-08-23T18:26:49.674Z,44.90
2018-08-23T18:29:18.417Z,44.91
2018-08-23T18:31:47.150Z,44.42
2018-08-23T18:34:15.865Z,45.29
2018-08-23T18:36:44.622Z,45.74
2018-08-23T18:39:13.298Z,45.63
2018-08-23T18:41:42.163Z,45.37
2018-08-23T18:44:10.874Z,45.40
2018-08-23T18:46:39.539Z,45.37
2018-08-23T18:49:08.218Z,45.97
2018-08-23T18:51:36.903Z,46.31
2018-08-23T18:54:05.761Z,46.97
2018-08-23T18:56:34.427Z,46.34
2018-08-23T18:59:03.153Z,46.92
2018-08-23T19:01:34.789Z,46.78
2018-08-23T19:04:04.325Z,47.04
2018-08-23T19:06:37.314Z,47.88
2018-08-23T19:09:12.544Z,48.34
2018-08-23T19:11:42.194Z,47.73
2018-08-23T19:14:12.582Z,48.30
2018-08-23T19:16:47.084Z,48.03
2018-08-23T19:19:15.785Z,47.86
2018-08-23T19:21:44.543Z,48.49
2018-08-23T19:24:13.234Z,49.23
2018-08-23T19:26:42.003Z,48.23
2018-08-23T19:29:10.714Z,48.17
2018-08-23T19:31:39.504Z,48.18
2018-08-23T19:34:08.232Z,48.20
2018-08-23T19:36:36.971Z,48.76
2018-08-23T19:39:09.270Z,49.37
2018-08-23T19:41:38.003Z,49.03
2018-08-23T19:44:06.798Z,49.34
2018-08-23T19:46:40.624Z,49.31
2018-08-23T19:49:14.600Z,49.57
2018-08-23T19:51:43.341Z,49.13
2018-08-23T19:54:12.058Z,49.98
2018-08-23T19:56:40.768Z,49.61
2018-08-23T19:59:09.715Z,48.98
2018-08-23T20:01:38.455Z,49.91
2018-08-23T20:04:07.233Z,49.28
2018-08-23T20:06:35.941Z,50.12
2018-08-23T20:09:06.691Z,49.20
2018-08-23T20:11:35.424Z,49.33
2018-08-23T20:14:04.226Z,49.67
2018-08-23T20:16:33.001Z,50.02
2018-08-23T20:19:01.800Z,50.15
2018-08-23T20:21:30.519Z,49.79
2018-08-23T20:23:59.261Z,49.78
2018-08-23T20:26:28.279Z,50.57
2018-08-23T20:28:57.066Z,50.71
2018-08-23T20:31:25.822Z,50.51
2018-08-23T20:33:54.542Z,50.64
2018-08-23T20:36:23.236Z,50.50
2018-08-23T20:38:51.987Z,50.34
2018-08-23T20:41:20.708Z,50.40
2018-08-23T20:43:49.409Z,51.06
2018-08-23T20:46:18.166Z,50.50
2018-08-23T20:48:46.896Z,51.57
2018-08-23T20:51:15.630Z,51.86
2018-08-23T20:53:44.316Z,51.21
2018-08-23T20:56:13.051Z,51.28
2018-08-23T20:58:41.782Z,51.53
2018-08-23T21:01:10.505Z,51.01
2018-08-23T21:03:39.214Z,51.47
2018-08-23T21:06:07.942Z,51.80
2018-08-23T21:08:36.650Z,51.88
2018-08-23T21:11:05.429Z,52.03
2018-08-23T21:13:34.254Z,51.50
2018-08-23T21:16:02.951Z,51.55
2018-08-23T21:18:31.637Z,51.75
2018-08-23T21:21:00.455Z,51.72
2018-08-23T21:23:29.196Z,51.40
2018-08-23T21:25:57.890Z,51.04
2018-08-23T21:28:26.581Z,50.75
2018-08-23T21:30:55.476Z,51.31
2018-08-23T21:33:24.237Z,52.29
2018-08-23T21:35:52.910Z,51.82
2018-08-23T21:38:21.608Z,52.50
2018-08-23T21:40:50.315Z,53.11
2018-08-23T21:43:18.986Z,54.11
2018-08-23T21:45:47.746Z,52.57
2018-08-23T21:48:16.527Z,53.24
2018-08-23T21:50:45.270Z,52.94
2018-08-23T21:53:14.578Z,53.24
2018-08-23T21:55:43.317Z,53.61
2018-08-23T21:58:12.391Z,53.12
2018-08-23T22:00:46.285Z,53.42
2018-08-23T22:03:15.035Z,54.35
2018-08-23T22:05:43.725Z,53.51
2018-08-23T22:08:12.599Z,53.16
2018-08-23T22:10:41.360Z,54.09
2018-08-23T22:13:10.075Z,53.41
2018-08-23T22:15:45.862Z,54.15
2018-08-23T22:18:14.782Z,53.50
2018-08-23T22:21:46.122Z,53.91
2018-08-23T22:24:14.927Z,54.57
2018-08-23T22:26:43.645Z,55.51
2018-08-23T22:29:12.296Z,54.46
2018-08-23T22:31:41.024Z,55.20
2018-08-23T22:34:09.759Z,55.97
2018-08-23T22:36:38.487Z,54.94
2018-08-23T22:39:08.123Z,56.48
2018-08-23T22:41:36.851Z,56.04
2018-08-23T22:44:05.599Z,56.69
2018-08-23T22:46:34.276Z,55.96
2018-08-23T22:49:03.267Z,55.64
2018-08-23T22:51:31.961Z,54.56
2018-08-23T22:54:00.618Z,54.57
2018-08-23T22:56:30.510Z,54.90
2018-08-23T22:58:59.203Z,54.21
2018-08-23T23:01:27.863Z,54.84
2018-08-23T23:04:01.732Z,54.01
2018-08-23T23:06:31.038Z,54.58
2018-08-23T23:08:59.722Z,54.49
2018-08-23T23:11:28.521Z,54.20
2018-08-23T23:13:57.216Z,54.93
2018-08-23T23:16:26.078Z,54.59
2018-08-23T23:18:54.711Z,55.01
2018-08-23T23:21:23.390Z,55.14
2018-08-23T23:23:52.442Z,55.10
2018-08-23T23:26:21.122Z,55.65
2018-08-23T23:28:49.913Z,55.68
2018-08-23T23:31:18.759Z,55.74
2018-08-23T23:33:47.430Z,55.42
2018-08-23T23:36:16.310Z,55.48
2018-08-23T23:38:44.990Z,55.58
2018-08-23T23:41:13.854Z,55.58
2018-08-23T23:43:42.676Z,55.14
2018-08-23T23:46:11.500Z,54.87
2018-08-23T23:50:09.836Z,54.63
2018-08-23T23:52:38.580Z,55.38
2018-08-23T23:55:07.342Z,55.03
2018-08-23T23:57:36.097Z,54.74
